createdAt,value
2022-12-09T00:02:21.521Z,20.07
2022-12-09T00:07:24.847Z,25.63
2022-12-09T00:12:28.011Z,27.83
2022-12-09T00:17:31.463Z,22.30
2022-12-09T00:22:34.675Z,25.07
2022-12-09T00:27:37.742Z,29.87
2022-12-09T00:32:40.871Z,21.33
2022-12-09T00:37:44.305Z,20.77
2022-12-09T00:42:47.166Z,21.33
2022-12-09T00:47:50.147Z,26.00
2022-12-09T00:52:53.102Z,32.43
2022-12-09T00:57:56.462Z,29.23
2022-12-09T01:02:59.661Z,26.17
2022-12-09T01:08:02.832Z,22.87
2022-12-09T01:13:06.740Z,23.17
2022-12-09T01:18:12.222Z,30.83
2022-12-09T01:23:15.092Z,26.30
2022-12-09T01:28:18.052Z,22.83
2022-12-09T01:33:20.837Z,24.50
2022-12-09T01:38:23.774Z,23.17
2022-12-09T01:43:26.877Z,21.73
2022-12-09T01:48:39.540Z,25.73
2022-12-09T01:53:46.485Z,22.53
2022-12-09T01:58:50.565Z,21.87
2022-12-09T02:03:53.908Z,20.27
2022-12-09T02:08:58.437Z,25.90
2022-12-09T02:14:39.582Z,25.33
2022-12-09T02:19:51.421Z,24.23
2022-12-09T02:25:21.162Z,25.27
2022-12-09T02:30:33.609Z,25.97
2022-12-09T02:35:57.519Z,23.43
2022-12-09T02:41:07.626Z,29.23
2022-12-09T02:46:13.283Z,25.60
2022-12-09T02:51:20.099Z,24.30
2022-12-09T02:56:24.304Z,23.53
2022-12-09T03:01:49.173Z,26.73
2022-12-09T03:06:55.434Z,26.23
2022-12-09T03:12:06.421Z,22.83
2022-12-09T03:17:33.593Z,20.50
2022-12-09T03:22:40.594Z,29.00
2022-12-09T03:27:50.064Z,27.63
2022-12-09T03:32:56.092Z,27.70
2022-12-09T03:38:01.833Z,21.43
2022-12-09T03:43:11.099Z,19.50
2022-12-09T03:48:14.980Z,29.93
2022-12-09T03:53:26.141Z,18.10
2022-12-09T03:58:33.591Z,22.97
2022-12-09T04:03:37.854Z,22.13
2022-12-09T04:08:41.213Z,35.67
2022-12-09T04:13:44.135Z,32.83
2022-12-09T04:18:47.394Z,36.67
2022-12-09T04:23:50.836Z,40.00
2022-12-09T04:28:53.889Z,32.23
2022-12-09T04:33:56.792Z,39.63
2022-12-09T04:39:00.048Z,30.17
2022-12-09T04:44:03.391Z,33.53
2022-12-09T04:49:06.374Z,34.50
2022-12-09T04:54:14.647Z,39.90
2022-12-09T04:59:18.027Z,36.73
2022-12-09T05:04:21.695Z,33.70
2022-12-09T05:09:25.135Z,31.47
2022-12-09T05:14:28.616Z,32.10
2022-12-09T05:19:31.753Z,36.17
2022-12-09T05:24:34.890Z,38.57
2022-12-09T05:29:38.045Z,35.10
2022-12-09T05:34:41.211Z,26.17
2022-12-09T05:39:44.281Z,32.93
2022-12-09T05:44:47.190Z,35.77
2022-12-09T05:49:50.381Z,40.50
2022-12-09T05:54:53.452Z,42.30
2022-12-09T05:59:56.851Z,35.17
2022-12-09T06:05:00.192Z,34.73
2022-12-09T06:10:04.978Z,35.90
2022-12-09T06:15:11.386Z,40.17
2022-12-09T06:20:16.377Z,34.43
2022-12-09T06:25:19.853Z,39.50
2022-12-09T06:30:22.839Z,49.77
2022-12-09T06:35:26.129Z,53.03
2022-12-09T06:40:29.069Z,40.63
2022-12-09T06:45:32.103Z,59.73
2022-12-09T06:50:35.055Z,47.27
2022-12-09T06:55:38.570Z,50.10
2022-12-09T07:00:41.981Z,47.93
2022-12-09T07:05:46.011Z,42.17
2022-12-09T07:10:54.684Z,47.67
2022-12-09T07:15:59.768Z,49.17
2022-12-09T07:21:11.937Z,44.73
2022-12-09T07:26:15.734Z,43.93
2022-12-09T07:31:28.577Z,46.00
2022-12-09T07:36:35.121Z,42.20
2022-12-09T07:41:38.216Z,43.10
2022-12-09T07:46:41.234Z,41.03
2022-12-09T07:51:45.243Z,45.60
2022-12-09T07:56:48.780Z,51.37
2022-12-09T08:01:52.210Z,48.10
2022-12-09T08:06:55.330Z,47.50
2022-12-09T08:11:59.400Z,46.90
2022-12-09T08:17:02.693Z,59.27
2022-12-09T08:22:06.238Z,55.90
2022-12-09T08:27:09.342Z,52.67
2022-12-09T08:32:12.907Z,47.40
2022-12-09T08:37:15.954Z,53.73
2022-12-09T08:42:19.030Z,45.03
2022-12-09T08:47:22.224Z,57.90
2022-12-09T08:52:26.141Z,54.53
2022-12-09T08:57:29.505Z,56.73
2022-12-09T09:02:32.800Z,52.40
2022-12-09T09:07:37.251Z,42.33
2022-12-09T09:12:43.503Z,47.47
2022-12-09T09:17:51.572Z,68.70
2022-12-09T09:23:01.147Z,57.80
2022-12-09T09:28:06.278Z,54.93
2022-12-09T09:33:09.765Z,44.40
2022-12-09T09:38:13.318Z,44.13
2022-12-09T09:43:19.648Z,47.53
2022-12-09T09:48:29.851Z,49.03
2022-12-09T09:53:36.403Z,50.83
2022-12-09T09:58:57.247Z,42.07
2022-12-09T10:04:14.410Z,46.07
2022-12-09T10:09:52.853Z,46.47
2022-12-09T10:15:12.460Z,41.40
2022-12-09T10:20:21.390Z,38.27
2022-12-09T10:25:32.036Z,40.67
2022-12-09T10:30:41.685Z,42.57
2022-12-09T10:35:47.789Z,40.83
2022-12-09T10:41:08.018Z,39.20
2022-12-09T10:46:24.344Z,47.83
2022-12-09T10:51:36.537Z,43.50
2022-12-09T10:57:04.492Z,38.90
2022-12-09T11:02:10.996Z,39.57
2022-12-09T11:07:22.935Z,34.10
2022-12-09T11:12:40.428Z,37.30
2022-12-09T11:17:59.521Z,36.10
2022-12-09T11:23:23.113Z,37.63
2022-12-09T11:28:31.128Z,35.97
2022-12-09T11:33:40.893Z,30.57
2022-12-09T11:38:51.828Z,31.00
2022-12-09T11:43:57.150Z,31.77
2022-12-09T11:49:16.776Z,32.23
2022-12-09T11:54:50.265Z,30.03
2022-12-09T12:00:01.452Z,33.63
2022-12-09T12:05:29.693Z,32.50
2022-12-09T12:10:41.036Z,29.63
2022-12-09T12:15:48.888Z,29.02
2022-12-09T12:21:19.805Z,30.03
2022-12-09T12:26:43.576Z,25.03
2022-12-09T12:32:29.164Z,32.40
2022-12-09T12:37:37.735Z,30.40
2022-12-09T12:43:33.005Z,41.27
2022-12-09T12:48:48.285Z,24.50
2022-12-09T12:54:51.107Z,28.63
2022-12-09T13:00:11.198Z,24.43
2022-12-09T13:05:27.750Z,25.27
2022-12-09T13:10:50.664Z,25.47
2022-12-09T13:16:00.669Z,30.00
2022-12-09T13:21:06.783Z,26.63
2022-12-09T13:26:58.773Z,31.33
2022-12-09T13:32:51.922Z,115.73
2022-12-09T13:37:57.011Z,62.83
2022-12-09T13:43:02.955Z,91.80
2022-12-09T13:48:16.465Z,44.40
2022-12-09T13:53:20.330Z,41.67
2022-12-09T13:59:16.059Z,56.80
2022-12-09T14:04:21.527Z,42.60
2022-12-09T14:09:27.059Z,51.43
2022-12-09T14:14:29.973Z,54.90
2022-12-09T14:19:50.916Z,41.00
2022-12-09T14:24:59.207Z,46.97
2022-12-09T14:30:34.710Z,39.70
2022-12-09T14:35:50.578Z,33.97
2022-12-09T14:40:59.432Z,39.63
2022-12-09T14:46:28.540Z,39.93
2022-12-09T14:52:03.731Z,38.60
2022-12-09T14:57:34.477Z,32.83
2022-12-09T15:02:37.543Z,68.83
2022-12-09T15:07:45.178Z,46.03
2022-12-09T15:12:53.112Z,49.53
2022-12-09T15:18:01.961Z,47.73
2022-12-09T15:23:30.888Z,40.67
2022-12-09T15:28:37.310Z,30.83
2022-12-09T15:33:47.389Z,41.53
2022-12-09T15:39:11.052Z,34.47
2022-12-09T15:44:19.374Z,39.80
2022-12-09T15:49:29.278Z,41.43
2022-12-09T15:54:39.622Z,29.67
2022-12-09T15:59:49.733Z,39.33
2022-12-09T16:05:03.117Z,30.30
2022-12-09T16:10:17.012Z,30.07
2022-12-09T16:15:56.540Z,31.37
2022-12-09T16:21:25.370Z,33.93
2022-12-09T16:26:37.153Z,44.27
2022-12-09T16:31:40.650Z,38.40
2022-12-09T16:36:55.958Z,38.83
2022-12-09T16:42:01.785Z,33.17
2022-12-09T16:47:18.304Z,44.63
2022-12-09T16:52:24.343Z,33.17
2022-12-09T16:57:27.216Z,25.60
2022-12-09T17:02:44.021Z,27.40
2022-12-09T17:07:46.981Z,27.93
2022-12-09T17:12:50.034Z,32.43
2022-12-09T17:17:52.860Z,27.53
2022-12-09T17:22:56.184Z,25.37
2022-12-09T17:28:08.148Z,23.93
2022-12-09T17:33:10.975Z,29.83
2022-12-09T17:38:13.871Z,27.87
2022-12-09T17:43:16.854Z,29.67
2022-12-09T17:48:19.732Z,38.70
2022-12-09T17:53:23.068Z,29.20
2022-12-09T17:58:25.996Z,29.80
2022-12-09T18:03:54.339Z,27.83
2022-12-09T18:08:53.403Z,22.53
2022-12-09T18:13:56.429Z,29.37
2022-12-09T18:19:06.249Z,21.93
2022-12-09T18:24:09.601Z,24.47
2022-12-09T18:29:13.077Z,24.90
2022-12-09T18:34:16.183Z,25.80
2022-12-09T18:39:20.140Z,19.60
2022-12-09T18:44:23.059Z,22.17
2022-12-09T18:49:28.474Z,19.93
2022-12-09T18:54:32.627Z,20.67
2022-12-09T18:59:35.563Z,14.00
2022-12-09T19:04:38.459Z,14.80
2022-12-09T19:09:42.055Z,13.17
2022-12-09T19:14:44.925Z,21.37
2022-12-09T19:19:49.532Z,13.93
2022-12-09T19:24:52.943Z,13.30
2022-12-09T19:29:55.933Z,14.93
2022-12-09T19:34:58.848Z,14.33
2022-12-09T19:40:01.763Z,16.30
2022-12-09T19:45:09.080Z,22.13
2022-12-09T19:50:15.587Z,31.60
2022-12-09T19:55:18.429Z,19.63
2022-12-09T20:00:21.382Z,16.93
2022-12-09T20:05:24.346Z,25.00
2022-12-09T20:10:27.295Z,23.30
2022-12-09T20:15:30.183Z,31.70
2022-12-09T20:20:34.787Z,26.20
2022-12-09T20:25:37.665Z,41.63
2022-12-09T20:30:40.520Z,57.13
2022-12-09T20:35:43.382Z,41.00
2022-12-09T20:40:46.285Z,26.73
2022-12-09T20:45:49.235Z,28.93
2022-12-09T20:50:52.637Z,32.70
2022-12-09T20:55:57.697Z,23.03
2022-12-09T21:01:38.200Z,37.37
2022-12-09T21:06:42.417Z,38.17
2022-12-09T21:11:47.004Z,23.33
2022-12-09T21:16:50.838Z,18.83
2022-12-09T21:21:54.659Z,18.73
2022-12-09T21:26:58.128Z,21.20
2022-12-09T21:32:01.791Z,15.00
2022-12-09T21:37:04.793Z,13.47
2022-12-09T21:42:09.218Z,10.70
2022-12-09T21:47:12.614Z,12.87
2022-12-09T21:52:15.923Z,10.60
2022-12-09T21:57:18.863Z,10.33
2022-12-09T22:02:21.830Z,7.60
2022-12-09T22:07:24.704Z,6.93
2022-12-09T22:12:28.279Z,9.17
2022-12-09T22:17:32.375Z,6.40
2022-12-09T22:22:36.539Z,5.23
2022-12-09T22:27:41.331Z,21.20
2022-12-09T22:32:50.419Z,8.00
2022-12-09T22:37:53.737Z,8.13
2022-12-09T22:42:56.866Z,10.77
2022-12-09T22:47:59.697Z,12.17
2022-12-09T22:53:02.618Z,20.57
2022-12-09T22:58:05.506Z,11.80
2022-12-09T23:03:08.470Z,11.90
2022-12-09T23:08:12.480Z,16.67
2022-12-09T23:13:15.870Z,9.03
2022-12-09T23:18:18.807Z,9.97
2022-12-09T23:23:21.839Z,17.00
2022-12-09T23:28:24.744Z,33.37
2022-12-09T23:33:27.699Z,41.07
2022-12-09T23:38:30.545Z,30.47
2022-12-09T23:43:35.436Z,37.63
2022-12-09T23:48:38.299Z,28.30
2022-12-09T23:53:42.875Z,25.13
2022-12-09T23:58:47.106Z,22.13
